Time;durP1;ratioP1;P1;durP2;ratioP2;P2;SDS_P1;SDS_P2;PMS_P1;PMS_P2;Temp;Humidity;BMP_temperature;BMP_pressure;BME280_temperature;BME280_humidity;BME280_pressure;Samples;Min_cycle;Max_cycle;Signal;HPM_P1;HPM_P2
2021/01/09 00:00:27;;;;;;;11.15;8.32;;;3.70;99.90;;;;;;5094773;28;20184;-76
2021/01/09 00:02:53;;;;;;;8.90;7.15;;;3.80;99.90;;;;;;5094432;28;20208;-77
2021/01/09 00:05:20;;;;;;;11.02;7.97;;;3.70;99.90;;;;;;5094264;28;20271;-77
2021/01/09 00:07:46;;;;;;;9.52;7.97;;;3.70;99.90;;;;;;5094366;28;20224;-77
2021/01/09 00:10:12;;;;;;;11.97;8.50;;;3.70;99.90;;;;;;5094497;28;20215;-77
2021/01/09 00:12:40;;;;;;;11.10;8.23;;;3.70;99.90;;;;;;5094355;28;20549;-77
2021/01/09 00:15:07;;;;;;;9.73;8.65;;;3.70;99.90;;;;;;5094253;28;20234;-77
2021/01/09 00:17:34;;;;;;;9.38;7.25;;;3.70;99.90;;;;;;5093982;28;20339;-77
2021/01/09 00:20:00;;;;;;;11.18;8.48;;;3.80;99.90;;;;;;5092428;28;20314;-77
2021/01/09 00:22:26;;;;;;;9.10;7.88;;;3.70;99.90;;;;;;5105843;28;20294;-77
2021/01/09 00:24:52;;;;;;;10.88;8.80;;;3.80;99.90;;;;;;5100027;28;20271;-77
2021/01/09 00:27:19;;;;;;;9.57;8.13;;;3.80;99.90;;;;;;5093985;28;20271;-77
2021/01/09 00:29:45;;;;;;;10.93;8.60;;;3.80;99.90;;;;;;5093883;28;20658;-77
2021/01/09 00:32:12;;;;;;;10.43;8.40;;;3.80;99.90;;;;;;5099185;28;20421;-80
2021/01/09 00:34:38;;;;;;;11.25;7.50;;;3.80;99.90;;;;;;5099047;28;20616;-77
2021/01/09 00:37:04;;;;;;;11.52;8.30;;;3.70;99.90;;;;;;5094524;28;20640;-77
2021/01/09 00:39:30;;;;;;;10.85;8.85;;;3.70;99.90;;;;;;5094762;28;20224;-76
2021/01/09 00:41:59;;;;;;;10.57;8.52;;;3.70;99.90;;;;;;5094764;28;20192;-76
2021/01/09 00:44:27;;;;;;;12.50;8.43;;;3.70;99.90;;;;;;5080353;28;20223;-77
2021/01/09 00:46:54;;;;;;;9.45;7.88;;;3.70;99.90;;;;;;5094249;28;20276;-77
2021/01/09 00:49:20;;;;;;;11.65;7.93;;;3.70;99.90;;;;;;5105854;28;20188;-76
2021/01/09 00:51:46;;;;;;;10.88;8.23;;;3.70;99.90;;;;;;5098183;28;20181;-76
2021/01/09 00:54:12;;;;;;;10.48;7.97;;;3.70;99.90;;;;;;5093945;28;20611;-77
2021/01/09 00:56:38;;;;;;;11.23;8.75;;;3.70;99.90;;;;;;5093796;28;20292;-77
2021/01/09 00:59:04;;;;;;;11.20;7.63;;;3.70;99.90;;;;;;5093699;28;20288;-77
2021/01/09 01:01:32;;;;;;;8.47;7.00;;;3.70;99.90;;;;;;5093919;28;20197;-77
2021/01/09 01:03:58;;;;;;;12.30;8.60;;;3.70;99.90;;;;;;5093758;28;20517;-77
2021/01/09 01:06:24;;;;;;;10.63;7.60;;;3.70;99.90;;;;;;5093774;28;20655;-77
2021/01/09 01:08:50;;;;;;;14.45;8.43;;;3.70;99.90;;;;;;5093818;28;20869;-77
2021/01/09 01:11:24;;;;;;;11.50;8.35;;;3.80;99.90;;;;;;5093018;28;20224;-77
2021/01/09 01:13:50;;;;;;;9.45;7.57;;;3.80;99.90;;;;;;5093858;28;20173;-77
2021/01/09 01:16:16;;;;;;;9.95;7.80;;;3.70;99.90;;;;;;5093529;28;20325;-77
2021/01/09 01:18:43;;;;;;;12.98;9.45;;;3.70;99.90;;;;;;5093473;28;20264;-78
2021/01/09 01:21:09;;;;;;;10.48;8.38;;;3.80;99.90;;;;;;5092190;28;20214;-77
2021/01/09 01:23:35;;;;;;;9.03;7.73;;;3.80;99.90;;;;;;5093385;28;20212;-77
2021/01/09 01:26:01;;;;;;;10.17;8.07;;;3.80;99.90;;;;;;5093181;28;20486;-77
2021/01/09 01:28:27;;;;;;;9.18;7.63;;;3.80;99.90;;;;;;5093200;28;20450;-76
2021/01/09 01:30:53;;;;;;;8.63;6.82;;;3.80;99.90;;;;;;5093351;28;20212;-77
2021/01/09 01:33:19;;;;;;;12.33;8.23;;;3.80;99.90;;;;;;5093070;28;20611;-77
2021/01/09 01:35:47;;;;;;;10.53;8.30;;;3.70;99.90;;;;;;5093157;28;20475;-77
2021/01/09 01:38:13;;;;;;;10.70;8.15;;;3.70;99.90;;;;;;5092924;28;21016;-77
2021/01/09 01:40:39;;;;;;;9.90;7.97;;;3.70;99.90;;;;;;5085161;28;20303;-76
2021/01/09 01:43:09;;;;;;;8.67;7.30;;;3.70;99.90;;;;;;5092622;28;20376;-77
2021/01/09 01:45:35;;;;;;;9.38;6.90;;;3.80;99.90;;;;;;5092973;28;20451;-76
2021/01/09 01:48:03;;;;;;;10.07;7.85;;;3.80;99.90;;;;;;5092949;28;20267;-77
2021/01/09 01:50:29;;;;;;;9.68;7.97;;;3.80;99.90;;;;;;5093316;28;20691;-76
2021/01/09 01:52:56;;;;;;;9.57;7.80;;;3.70;99.90;;;;;;5093075;28;20346;-76
2021/01/09 01:55:22;;;;;;;9.65;7.78;;;3.70;99.90;;;;;;5092742;28;20315;-77
2021/01/09 01:57:48;;;;;;;9.93;7.15;;;3.70;99.90;;;;;;5092964;28;20644;-76
2021/01/09 02:00:16;;;;;;;10.30;8.13;;;3.70;99.90;;;;;;5092902;28;20199;-76
2021/01/09 02:02:42;;;;;;;9.90;7.78;;;3.70;99.90;;;;;;5092468;28;20996;-77
2021/01/09 02:05:10;;;;;;;11.50;8.03;;;3.70;99.90;;;;;;5092770;28;20223;-77
2021/01/09 02:07:41;;;;;;;8.80;7.10;;;3.70;99.90;;;;;;5092598;28;20537;-76
2021/01/09 02:10:09;;;;;;;8.90;7.18;;;3.70;99.90;;;;;;5092657;28;20192;-77
2021/01/09 02:12:40;;;;;;;9.48;7.97;;;3.70;99.90;;;;;;5092670;28;20268;-77
2021/01/09 02:15:07;;;;;;;10.77;8.38;;;3.70;99.90;;;;;;5092438;28;20746;-77
2021/01/09 02:17:35;;;;;;;9.55;8.00;;;3.70;99.90;;;;;;5092652;28;20264;-77
2021/01/09 02:20:03;;;;;;;12.10;8.07;;;3.80;99.90;;;;;;5092645;28;20614;-77
2021/01/09 02:22:32;;;;;;;10.13;7.45;;;3.70;99.90;;;;;;5090546;28;20693;-77
2021/01/09 02:24:59;;;;;;;11.80;8.52;;;3.70;99.90;;;;;;5092709;28;20176;-77
2021/01/09 02:27:25;;;;;;;10.98;8.57;;;3.70;99.90;;;;;;5092240;28;20256;-77
2021/01/09 02:29:57;;;;;;;12.03;8.53;;;3.70;99.90;;;;;;5092679;28;20188;-77
2021/01/09 02:32:27;;;;;;;12.00;9.05;;;3.80;99.90;;;;;;5076662;28;20537;-76
2021/01/09 02:34:55;;;;;;;11.10;7.88;;;3.70;99.90;;;;;;5092403;28;20275;-76
2021/01/09 02:37:22;;;;;;;9.80;7.05;;;3.70;99.90;;;;;;5092482;28;20253;-76
2021/01/09 02:39:50;;;;;;;9.75;7.28;;;3.70;99.90;;;;;;5092395;28;20307;-76
2021/01/09 02:42:17;;;;;;;9.75;7.45;;;3.70;99.90;;;;;;5091121;28;20185;-76
2021/01/09 02:44:44;;;;;;;10.40;7.68;;;3.70;99.90;;;;;;5079383;28;20707;-76
2021/01/09 02:47:10;;;;;;;10.50;8.00;;;3.70;99.90;;;;;;5092160;28;20184;-76
2021/01/09 02:49:36;;;;;;;10.68;8.02;;;3.70;99.90;;;;;;5104359;28;20196;-76
2021/01/09 02:52:02;;;;;;;10.90;7.93;;;3.70;99.90;;;;;;5092381;28;20250;-76
2021/01/09 02:54:28;;;;;;;8.20;6.85;;;3.70;99.90;;;;;;5092492;28;20639;-76
2021/01/09 02:56:54;;;;;;;7.67;6.53;;;3.60;99.90;;;;;;5092304;28;20917;-77
2021/01/09 02:59:21;;;;;;;10.77;8.27;;;3.70;99.90;;;;;;5092303;28;20450;-76
2021/01/09 03:01:49;;;;;;;11.00;8.20;;;3.70;99.90;;;;;;5092167;28;20533;-76
2021/01/09 03:04:15;;;;;;;15.32;8.35;;;3.60;99.90;;;;;;5092069;28;20212;-77
2021/01/09 03:06:41;;;;;;;9.45;7.75;;;3.60;99.90;;;;;;5092226;28;20188;-76
2021/01/09 03:09:07;;;;;;;12.00;8.35;;;3.60;99.90;;;;;;5092216;28;20275;-76
2021/01/09 03:11:33;;;;;;;11.45;8.18;;;3.60;99.90;;;;;;5092165;28;20181;-77
2021/01/09 03:13:59;;;;;;;9.13;7.68;;;3.60;99.90;;;;;;5092134;28;20216;-76
2021/01/09 03:16:26;;;;;;;11.32;8.13;;;3.70;99.90;;;;;;5092079;28;20267;-76
2021/01/09 03:18:52;;;;;;;11.18;7.70;;;3.70;99.90;;;;;;5091978;28;20294;-77
2021/01/09 03:21:18;;;;;;;11.90;8.30;;;3.70;99.90;;;;;;5092127;28;20193;-77
2021/01/09 03:23:44;;;;;;;9.87;7.20;;;3.70;99.90;;;;;;5091975;28;20504;-77
2021/01/09 03:26:10;;;;;;;10.57;7.80;;;3.70;99.90;;;;;;5092041;28;20453;-76
2021/01/09 03:28:36;;;;;;;8.40;7.32;;;3.70;99.90;;;;;;5092022;28;20447;-77
2021/01/09 03:31:02;;;;;;;11.00;7.80;;;3.70;99.90;;;;;;5091911;28;20258;-77
2021/01/09 03:33:29;;;;;;;11.20;8.05;;;3.70;99.90;;;;;;5092844;28;20275;-77
2021/01/09 03:35:55;;;;;;;8.55;6.88;;;3.70;99.90;;;;;;5095564;28;20313;-77
2021/01/09 03:38:22;;;;;;;10.93;8.15;;;3.70;99.90;;;;;;5095639;28;20607;-77
2021/01/09 03:40:48;;;;;;;10.95;8.40;;;3.70;99.90;;;;;;5095300;28;20248;-77
2021/01/09 03:43:14;;;;;;;10.98;8.50;;;3.70;99.90;;;;;;5085986;28;20730;-77
2021/01/09 03:45:40;;;;;;;12.45;9.15;;;3.70;99.90;;;;;;5090242;28;20275;-77
2021/01/09 03:48:07;;;;;;;10.13;7.90;;;3.70;99.90;;;;;;5096637;28;20279;-77
2021/01/09 03:50:34;;;;;;;13.05;9.00;;;3.70;99.90;;;;;;5109966;28;20347;-77
2021/01/09 03:53:00;;;;;;;11.25;8.48;;;3.70;99.90;;;;;;5095105;28;20185;-77
2021/01/09 03:55:26;;;;;;;10.47;8.10;;;3.70;99.90;;;;;;5095282;28;20615;-77
2021/01/09 03:57:52;;;;;;;12.43;7.83;;;3.70;99.90;;;;;;5095043;28;20443;-77
2021/01/09 04:00:18;;;;;;;11.97;9.20;;;3.70;99.90;;;;;;5094926;28;20810;-76
2021/01/09 04:02:44;;;;;;;10.20;8.18;;;3.70;99.90;;;;;;5095038;28;20565;-77
2021/01/09 04:05:11;;;;;;;12.23;8.27;;;3.70;99.90;;;;;;5095026;28;20212;-76
2021/01/09 04:07:38;;;;;;;9.93;8.00;;;3.70;99.90;;;;;;5094777;28;20218;-76
2021/01/09 04:10:06;;;;;;;12.20;8.55;;;3.70;99.90;;;;;;5094789;28;20739;-76
2021/01/09 04:12:32;;;;;;;8.77;7.78;;;3.80;99.90;;;;;;5094858;28;20640;-76
2021/01/09 04:14:58;;;;;;;11.63;8.20;;;3.80;99.90;;;;;;5094738;28;20185;-77
2021/01/09 04:17:24;;;;;;;11.07;7.88;;;3.80;99.90;;;;;;5094794;28;20276;-76
2021/01/09 04:19:50;;;;;;;11.73;9.35;;;3.70;99.90;;;;;;5094864;28;20641;-77
2021/01/09 04:22:16;;;;;;;13.00;8.80;;;3.70;99.90;;;;;;5094473;28;20193;-77
2021/01/09 04:24:43;;;;;;;9.20;7.77;;;3.70;99.90;;;;;;5094542;28;20185;-77
2021/01/09 04:27:09;;;;;;;10.63;7.80;;;3.70;99.90;;;;;;5094452;28;20538;-77
2021/01/09 04:29:35;;;;;;;10.47;7.73;;;3.70;99.90;;;;;;5094342;28;20188;-77
2021/01/09 04:32:01;;;;;;;12.60;8.40;;;3.70;99.90;;;;;;5094466;28;20443;-77
2021/01/09 04:34:27;;;;;;;10.82;8.65;;;3.70;99.90;;;;;;5094519;28;20275;-76
2021/01/09 04:36:53;;;;;;;11.23;8.40;;;3.70;99.90;;;;;;5094488;28;20773;-77
2021/01/09 04:39:20;;;;;;;11.65;8.25;;;3.70;99.90;;;;;;5093986;28;20475;-77
2021/01/09 04:41:47;;;;;;;11.60;8.43;;;3.70;99.90;;;;;;5094194;28;20202;-76
2021/01/09 04:44:14;;;;;;;10.05;8.18;;;3.80;99.90;;;;;;5079106;28;20212;-77
2021/01/09 04:46:48;;;;;;;12.65;9.30;;;3.80;99.90;;;;;;5093768;28;20264;-77
2021/01/09 04:49:14;;;;;;;11.68;8.30;;;3.80;99.90;;;;;;5104944;28;20550;-76
2021/01/09 04:51:42;;;;;;;10.32;7.80;;;3.80;99.90;;;;;;5099220;28;20647;-76
2021/01/09 04:54:10;;;;;;;11.75;8.70;;;3.80;99.90;;;;;;5093519;28;20216;-76
2021/01/09 04:56:36;;;;;;;11.00;8.32;;;3.80;99.90;;;;;;5094013;28;20271;-77
2021/01/09 04:59:05;;;;;;;9.68;7.70;;;3.80;99.90;;;;;;5093883;28;20233;-77
2021/01/09 05:01:31;;;;;;;12.05;8.40;;;3.80;99.90;;;;;;5094044;28;20195;-78
2021/01/09 05:03:57;;;;;;;10.07;7.82;;;3.70;99.90;;;;;;5093458;28;20698;-77
2021/01/09 05:06:23;;;;;;;9.73;7.63;;;3.80;99.90;;;;;;5093633;28;20682;-77
2021/01/09 05:08:49;;;;;;;9.73;7.78;;;3.80;99.90;;;;;;5093691;28;20652;-77
2021/01/09 05:11:16;;;;;;;11.93;8.18;;;3.70;99.90;;;;;;5093507;28;20271;-77
2021/01/09 05:13:46;;;;;;;9.77;7.22;;;3.80;99.90;;;;;;5093123;28;20585;-77
2021/01/09 05:16:14;;;;;;;11.43;8.82;;;3.80;99.90;;;;;;5093654;28;20272;-76
2021/01/09 05:18:41;;;;;;;11.45;8.30;;;3.80;99.90;;;;;;5093437;28;20608;-77
2021/01/09 05:21:10;;;;;;;9.85;7.72;;;3.80;99.90;;;;;;5093425;28;20699;-76
2021/01/09 05:23:49;;;;;;;10.10;7.75;;;3.80;99.90;;;;;;5093233;28;20208;-77
2021/01/09 05:26:16;;;;;;;10.63;8.10;;;3.80;99.90;;;;;;5093554;28;20445;-77
2021/01/09 05:28:45;;;;;;;9.40;7.40;;;3.80;99.90;;;;;;5093405;28;20267;-76
2021/01/09 05:31:11;;;;;;;9.48;7.60;;;3.70;99.90;;;;;;5093477;28;20189;-76
2021/01/09 05:33:41;;;;;;;10.60;7.75;;;3.80;99.90;;;;;;5093244;28;20185;-76
2021/01/09 05:36:08;;;;;;;9.02;6.85;;;3.70;99.90;;;;;;5093089;28;20240;-77
2021/01/09 05:38:35;;;;;;;10.85;7.65;;;3.80;99.90;;;;;;5093112;28;20263;-76
2021/01/09 05:41:06;;;;;;;11.23;7.93;;;3.80;99.90;;;;;;5092887;28;20409;-76
2021/01/09 05:43:32;;;;;;;8.07;6.90;;;3.80;99.90;;;;;;5081015;28;20221;-77
2021/01/09 05:45:59;;;;;;;10.85;7.35;;;3.80;99.90;;;;;;5090533;28;20618;-76
2021/01/09 05:48:26;;;;;;;7.88;7.07;;;3.80;99.90;;;;;;5096983;28;20180;-76
2021/01/09 05:50:54;;;;;;;9.95;7.50;;;3.80;99.90;;;;;;5104905;28;20181;-76
2021/01/09 05:53:39;;;;;;;8.20;6.88;;;3.70;99.90;;;;;;5092672;28;20743;-76
2021/01/09 05:56:05;;;;;;;9.73;7.70;;;3.80;99.90;;;;;;5092847;28;20267;-76
2021/01/09 05:58:33;;;;;;;10.68;7.72;;;3.70;99.90;;;;;;5092952;28;20181;-77
2021/01/09 06:01:02;;;;;;;8.73;7.43;;;3.80;99.90;;;;;;5092771;28;20233;-77
2021/01/09 06:03:43;;;;;;;8.80;7.05;;;3.80;99.90;;;;;;5092555;28;20298;-77
2021/01/09 06:06:22;;;;;;;9.63;6.57;;;3.80;99.90;;;;;;5092845;28;20271;-77
2021/01/09 06:08:53;;;;;;;10.23;7.47;;;3.80;99.90;;;;;;5092805;28;20707;-76
2021/01/09 06:11:28;;;;;;;9.00;7.22;;;3.80;99.90;;;;;;5092766;28;20590;-76
2021/01/09 06:13:58;;;;;;;7.38;6.10;;;3.80;99.90;;;;;;5092626;28;20669;-77
2021/01/09 06:16:25;;;;;;;8.55;7.10;;;3.80;99.90;;;;;;5092762;28;20267;-77
2021/01/09 06:18:51;;;;;;;10.60;7.72;;;3.80;99.90;;;;;;5092701;28;20275;-77
2021/01/09 06:21:20;;;;;;;10.02;7.10;;;3.80;99.90;;;;;;5092600;28;20185;-77
2021/01/09 06:23:46;;;;;;;6.88;6.18;;;3.80;99.90;;;;;;5092450;28;20303;-76
2021/01/09 06:26:14;;;;;;;8.20;7.15;;;3.80;99.90;;;;;;5092373;28;20177;-76
2021/01/09 06:28:46;;;;;;;7.47;6.60;;;3.80;99.90;;;;;;5092432;28;20272;-77
2021/01/09 06:31:18;;;;;;;8.13;6.93;;;3.80;99.90;;;;;;5092451;28;20287;-77
2021/01/09 06:33:48;;;;;;;8.05;6.82;;;3.80;99.90;;;;;;5092715;28;20650;-77
2021/01/09 06:36:15;;;;;;;9.23;7.30;;;3.80;99.90;;;;;;5092323;28;20234;-77
2021/01/09 06:38:42;;;;;;;8.32;5.97;;;3.80;99.90;;;;;;5092315;28;20264;-78
2021/01/09 06:41:12;;;;;;;8.52;6.50;;;3.80;99.90;;;;;;5092335;28;20267;-78
2021/01/09 06:43:40;;;;;;;6.63;5.90;;;3.70;99.90;;;;;;5080076;28;20216;-77
2021/01/09 06:46:07;;;;;;;7.80;5.80;;;3.80;99.90;;;;;;5090792;28;20658;-77
2021/01/09 06:48:35;;;;;;;7.72;6.40;;;3.80;99.90;;;;;;5097607;28;20267;-77
2021/01/09 06:51:01;;;;;;;7.90;5.72;;;3.80;99.90;;;;;;5102712;28;20606;-77
2021/01/09 06:53:27;;;;;;;7.80;6.32;;;3.80;99.90;;;;;;5092268;28;20184;-77
2021/01/09 06:55:58;;;;;;;9.77;6.53;;;3.80;99.90;;;;;;5092091;28;20192;-77
2021/01/09 06:58:27;;;;;;;6.57;5.88;;;3.80;99.90;;;;;;5092515;28;20443;-77
2021/01/09 07:00:53;;;;;;;7.63;6.38;;;3.80;99.90;;;;;;5092327;28;20188;-76
2021/01/09 07:03:21;;;;;;;7.90;6.13;;;3.80;99.90;;;;;;5092118;28;20208;-76
2021/01/09 07:05:49;;;;;;;7.68;5.90;;;3.80;99.90;;;;;;5092084;28;20185;-77
2021/01/09 07:08:20;;;;;;;7.50;5.80;;;3.80;99.90;;;;;;5092722;28;20706;-77
2021/01/09 07:10:48;;;;;;;7.72;6.25;;;3.80;99.90;;;;;;5096200;28;20231;-76
2021/01/09 07:13:16;;;;;;;7.47;5.45;;;3.80;99.90;;;;;;5095990;28;20646;-77
2021/01/09 07:15:42;;;;;;;6.68;6.00;;;3.80;99.90;;;;;;5095999;28;20191;-77
2021/01/09 07:18:09;;;;;;;6.57;5.60;;;3.80;99.90;;;;;;5095729;28;20268;-77
2021/01/09 07:20:38;;;;;;;6.82;5.65;;;3.80;99.90;;;;;;5096052;28;20212;-77
2021/01/09 07:23:06;;;;;;;6.22;5.20;;;3.90;99.90;;;;;;5095798;28;20306;-77
2021/01/09 07:25:35;;;;;;;6.05;5.22;;;3.80;99.90;;;;;;5095840;28;20276;-77
2021/01/09 07:28:03;;;;;;;5.93;5.32;;;3.90;99.90;;;;;;5095744;28;20184;-77
2021/01/09 07:30:31;;;;;;;6.50;4.93;;;3.90;99.90;;;;;;5095615;28;20582;-77
2021/01/09 07:32:58;;;;;;;5.28;4.78;;;3.90;99.90;;;;;;5095543;28;20243;-77
2021/01/09 07:35:26;;;;;;;5.00;4.50;;;4.00;99.90;;;;;;5095668;28;20275;-77
2021/01/09 07:37:56;;;;;;;5.82;5.22;;;4.00;99.90;;;;;;5095660;28;20279;-77
2021/01/09 07:40:23;;;;;;;5.95;5.03;;;4.00;99.90;;;;;;5095320;28;20245;-79
2021/01/09 07:42:50;;;;;;;5.75;5.03;;;4.10;99.90;;;;;;5096857;28;20706;-76
2021/01/09 07:45:18;;;;;;;6.07;5.20;;;4.10;99.90;;;;;;5096409;28;20724;-77
2021/01/09 07:47:47;;;;;;;4.68;4.10;;;4.20;99.90;;;;;;5095238;28;20703;-76
2021/01/09 07:50:16;;;;;;;5.43;4.72;;;4.20;99.90;;;;;;5095201;28;20177;-77
2021/01/09 07:52:42;;;;;;;5.18;4.68;;;4.20;99.90;;;;;;5095381;28;20208;-76
2021/01/09 07:55:10;;;;;;;6.82;5.53;;;4.20;99.90;;;;;;5095140;28;20216;-76
2021/01/09 07:57:39;;;;;;;11.70;6.78;;;4.20;99.90;;;;;;5095077;28;20306;-75
2021/01/09 08:00:08;;;;;;;6.60;5.82;;;4.30;99.90;;;;;;5094708;28;20640;-75
2021/01/09 08:02:35;;;;;;;8.48;5.47;;;4.30;99.90;;;;;;5095160;28;20188;-75
2021/01/09 08:05:07;;;;;;;11.35;7.18;;;4.40;99.90;;;;;;5094952;28;20264;-75
2021/01/09 08:07:35;;;;;;;7.75;6.18;;;4.40;99.90;;;;;;5095053;28;20268;-76
2021/01/09 08:10:16;;;;;;;8.95;6.22;;;4.40;99.90;;;;;;5094730;28;20276;-78
2021/01/09 08:12:43;;;;;;;10.63;6.97;;;4.40;99.90;;;;;;5095110;28;20302;-77
2021/01/09 08:15:09;;;;;;;11.50;7.75;;;4.40;99.90;;;;;;5094463;28;20315;-77
2021/01/09 08:17:35;;;;;;;10.32;6.95;;;4.50;99.90;;;;;;5094612;28;20185;-77
2021/01/09 08:20:08;;;;;;;9.27;7.07;;;4.50;99.90;;;;;;5093036;28;20220;-76
2021/01/09 08:22:35;;;;;;;11.73;6.90;;;4.50;99.90;;;;;;5094624;28;20662;-77
2021/01/09 08:25:11;;;;;;;10.52;7.28;;;4.50;99.90;;;;;;5094208;28;20248;-76
2021/01/09 08:27:48;;;;;;;7.05;5.88;;;4.50;99.90;;;;;;5094699;28;20215;-77
2021/01/09 08:30:17;;;;;;;8.18;6.25;;;4.40;99.90;;;;;;5094527;28;20216;-77
2021/01/09 08:32:43;;;;;;;9.65;6.85;;;4.40;99.90;;;;;;5094468;28;20612;-78
2021/01/09 08:35:12;;;;;;;8.45;6.45;;;4.30;99.90;;;;;;5094369;28;20280;-78
2021/01/09 08:37:39;;;;;;;8.93;7.05;;;4.30;99.90;;;;;;5094255;28;20690;-78
2021/01/09 08:40:17;;;;;;;9.95;6.78;;;4.40;99.90;;;;;;5094199;28;20220;-77
2021/01/09 08:42:57;;;;;;;9.32;7.30;;;4.40;99.90;;;;;;5089260;28;20220;-77
2021/01/09 08:45:46;;;;;;;9.73;7.32;;;4.40;99.90;;;;;;5086710;28;20295;-78
2021/01/09 08:48:16;;;;;;;7.38;6.55;;;4.30;99.90;;;;;;5096212;28;20240;-78
2021/01/09 08:51:00;;;;;;;8.55;6.68;;;4.30;99.90;;;;;;5107513;28;20609;-77
2021/01/09 08:53:27;;;;;;;7.13;6.43;;;4.30;99.90;;;;;;5094150;28;20267;-77
2021/01/09 08:56:00;;;;;;;7.70;6.50;;;4.40;99.90;;;;;;5093858;28;20193;-77
2021/01/09 08:58:30;;;;;;;7.00;6.30;;;4.40;99.90;;;;;;5093916;28;20188;-77
2021/01/09 09:00:57;;;;;;;7.00;6.30;;;4.40;99.90;;;;;;5094015;28;20188;-77
2021/01/09 09:03:24;;;;;;;7.20;5.50;;;4.40;99.90;;;;;;5093739;28;20813;-77
2021/01/09 09:05:51;;;;;;;8.25;6.10;;;4.50;99.90;;;;;;5093748;28;20267;-77
2021/01/09 09:08:19;;;;;;;6.15;5.55;;;4.50;99.90;;;;;;5093805;28;20181;-77
2021/01/09 09:10:46;;;;;;;9.05;6.85;;;4.60;99.90;;;;;;5093487;28;20176;-78
2021/01/09 09:13:17;;;;;;;7.97;7.00;;;4.60;99.90;;;;;;5099142;28;20184;-78
2021/01/09 09:15:43;;;;;;;12.55;6.22;;;4.70;99.90;;;;;;5104067;28;20276;-77
2021/01/09 09:18:10;;;;;;;7.78;5.82;;;4.80;99.90;;;;;;5094526;28;20357;-76
2021/01/09 09:20:37;;;;;;;9.13;7.18;;;4.80;99.90;;;;;;5093693;28;20272;-77
2021/01/09 09:23:18;;;;;;;7.35;6.50;;;4.80;99.90;;;;;;5093323;28;20648;-77
2021/01/09 09:25:45;;;;;;;7.57;5.97;;;4.80;99.90;;;;;;5093404;28;20276;-76
2021/01/09 09:28:11;;;;;;;7.80;6.95;;;4.80;99.90;;;;;;5097616;28;20271;-77
2021/01/09 09:30:39;;;;;;;9.20;7.50;;;4.90;99.90;;;;;;5102207;28;20275;-78
2021/01/09 09:33:13;;;;;;;7.72;6.22;;;4.80;99.90;;;;;;5095233;28;20195;-79
2021/01/09 09:35:40;;;;;;;9.73;7.80;;;4.80;99.90;;;;;;5093542;28;20181;-79
2021/01/09 09:38:06;;;;;;;9.07;6.70;;;4.80;99.90;;;;;;5092553;28;20618;-78
2021/01/09 09:40:34;;;;;;;10.57;7.50;;;4.80;99.90;;;;;;5093977;28;20216;-79
2021/01/09 09:43:14;;;;;;;10.50;7.95;;;4.80;99.90;;;;;;5100182;28;20274;-77
2021/01/09 09:45:54;;;;;;;9.50;7.82;;;4.80;99.90;;;;;;5098312;28;20223;-78
2021/01/09 09:48:20;;;;;;;9.32;7.75;;;4.90;99.90;;;;;;5079721;28;20606;-78
2021/01/09 09:50:46;;;;;;;9.45;7.25;;;4.90;99.90;;;;;;5096671;28;20711;-78
2021/01/09 09:53:12;;;;;;;8.68;7.03;;;4.90;99.90;;;;;;5092725;28;20283;-78
2021/01/09 09:55:38;;;;;;;8.40;7.50;;;4.90;99.90;;;;;;5092400;28;20276;-78
2021/01/09 09:58:06;;;;;;;10.25;7.93;;;5.00;99.90;;;;;;5092371;28;20268;-78
2021/01/09 10:00:39;;;;;;;10.18;7.90;;;5.10;99.90;;;;;;5094524;28;20252;-77
2021/01/09 10:03:05;;;;;;;11.10;7.93;;;5.10;99.90;;;;;;5099508;28;20204;-78
2021/01/09 10:05:34;;;;;;;8.65;7.03;;;5.20;99.90;;;;;;5098777;28;20300;-78
2021/01/09 10:08:11;;;;;;;8.60;7.40;;;5.20;99.90;;;;;;5092518;28;20663;-78
2021/01/09 10:10:39;;;;;;;10.60;8.30;;;5.20;99.90;;;;;;5092560;28;20264;-78
2021/01/09 10:13:05;;;;;;;11.50;8.70;;;5.20;99.90;;;;;;5095891;28;20187;-79
2021/01/09 10:15:31;;;;;;;10.63;8.02;;;5.20;99.90;;;;;;5092338;28;20195;-80
2021/01/09 10:18:00;;;;;;;8.85;6.95;;;5.20;99.90;;;;;;5090259;28;20544;-78
2021/01/09 10:20:27;;;;;;;9.23;7.88;;;5.10;99.90;;;;;;5087084;28;20208;-78
2021/01/09 10:22:53;;;;;;;12.13;9.25;;;5.10;99.90;;;;;;5100268;28;20181;-78
2021/01/09 10:25:20;;;;;;;14.07;9.82;;;5.10;99.90;;;;;;5094425;28;20643;-79
2021/01/09 10:27:47;;;;;;;11.57;8.23;;;5.10;99.90;;;;;;5094658;28;20666;-78
2021/01/09 10:30:14;;;;;;;10.07;7.93;;;5.20;99.90;;;;;;5092764;28;20180;-78
2021/01/09 10:32:43;;;;;;;13.40;9.50;;;5.10;99.90;;;;;;5091916;28;20191;-78
2021/01/09 10:35:10;;;;;;;13.60;9.07;;;5.10;99.90;;;;;;5092516;28;20615;-79
2021/01/09 10:37:36;;;;;;;12.75;9.05;;;5.10;99.90;;;;;;5087854;28;20648;-79
2021/01/09 10:40:03;;;;;;;14.45;9.80;;;5.10;99.90;;;;;;5091545;28;20719;-79
2021/01/09 10:42:29;;;;;;;12.82;8.35;;;5.10;99.90;;;;;;5087655;28;20181;-79
2021/01/09 10:44:56;;;;;;;14.82;10.60;;;5.10;99.90;;;;;;5094995;28;20254;-79
2021/01/09 10:47:22;;;;;;;16.75;10.15;;;5.10;99.90;;;;;;5095466;28;20668;-78
2021/01/09 10:49:48;;;;;;;16.77;10.80;;;5.10;99.90;;;;;;5100183;28;20212;-78
2021/01/09 10:52:14;;;;;;;15.13;10.00;;;5.10;99.90;;;;;;5095120;28;20498;-78
2021/01/09 10:54:40;;;;;;;15.60;10.97;;;5.10;99.90;;;;;;5095533;28;20447;-78
2021/01/09 10:57:06;;;;;;;15.15;10.00;;;5.10;99.90;;;;;;5095400;28;20549;-79
2021/01/09 10:59:32;;;;;;;16.25;10.27;;;5.00;99.90;;;;;;5097385;28;20280;-79
2021/01/09 11:02:03;;;;;;;15.93;10.10;;;4.90;99.90;;;;;;5104061;28;20211;-81
2021/01/09 11:04:29;;;;;;;16.77;10.98;;;5.00;99.90;;;;;;5101931;28;20214;-77
2021/01/09 11:06:57;;;;;;;13.68;9.32;;;5.00;99.90;;;;;;5105514;28;20630;-77
2021/01/09 11:09:23;;;;;;;17.33;10.40;;;5.10;99.90;;;;;;5103826;28;20185;-77
2021/01/09 11:11:49;;;;;;;14.85;10.75;;;5.10;99.90;;;;;;5105348;28;20259;-77
2021/01/09 11:14:15;;;;;;;17.33;11.52;;;5.10;99.90;;;;;;5105227;28;20189;-77
2021/01/09 11:16:41;;;;;;;15.48;10.13;;;5.10;99.90;;;;;;5103849;28;20601;-77
2021/01/09 11:19:09;;;;;;;21.58;11.38;;;5.10;99.90;;;;;;5105447;28;20527;-77
2021/01/09 11:21:36;;;;;;;17.38;11.90;;;5.00;99.90;;;;;;5101261;28;20219;-79
2021/01/09 11:24:02;;;;;;;19.67;12.45;;;5.00;99.90;;;;;;5103283;28;20299;-79
2021/01/09 11:26:28;;;;;;;18.17;11.10;;;5.00;99.90;;;;;;5105136;28;20215;-79
2021/01/09 11:28:55;;;;;;;16.33;10.00;;;5.00;99.90;;;;;;5104961;28;20263;-79
2021/01/09 11:31:22;;;;;;;18.15;11.02;;;5.10;99.90;;;;;;5103541;28;20181;-79
2021/01/09 11:33:48;;;;;;;19.95;10.80;;;5.00;99.90;;;;;;5104965;28;20219;-79
2021/01/09 11:36:16;;;;;;;19.80;11.60;;;5.00;99.90;;;;;;5104595;28;20618;-79
2021/01/09 11:38:42;;;;;;;20.15;11.70;;;4.90;99.90;;;;;;5099291;28;20185;-79
2021/01/09 11:41:08;;;;;;;15.43;10.52;;;4.90;99.90;;;;;;5094428;28;20188;-80
2021/01/09 11:43:36;;;;;;;18.67;10.90;;;4.90;99.90;;;;;;5094525;28;20296;-79
2021/01/09 11:46:03;;;;;;;18.67;12.20;;;5.00;99.90;;;;;;5094361;28;20234;-79
2021/01/09 11:48:29;;;;;;;19.20;11.70;;;5.00;99.90;;;;;;5098471;28;20225;-79
2021/01/09 11:50:55;;;;;;;22.13;12.60;;;4.90;99.90;;;;;;5094520;28;20614;-79
2021/01/09 11:53:22;;;;;;;17.25;11.10;;;5.00;99.90;;;;;;5093990;28;20282;-79
2021/01/09 11:55:49;;;;;;;17.33;11.55;;;5.00;99.90;;;;;;5094134;28;20189;-78
2021/01/09 11:58:16;;;;;;;21.58;12.55;;;5.00;99.90;;;;;;5093617;28;20195;-78
2021/01/09 12:00:42;;;;;;;21.83;11.32;;;5.00;99.90;;;;;;5094037;28;20280;-78
2021/01/09 12:03:08;;;;;;;17.48;10.77;;;5.00;99.90;;;;;;5093700;28;20271;-79
2021/01/09 12:05:34;;;;;;;18.17;10.87;;;5.00;99.90;;;;;;5094158;28;20235;-78
2021/01/09 12:08:00;;;;;;;16.25;11.20;;;5.00;99.90;;;;;;5093653;28;20810;-78
2021/01/09 12:10:28;;;;;;;16.65;10.88;;;4.90;99.90;;;;;;5094088;28;20258;-80
2021/01/09 12:12:54;;;;;;;16.17;10.98;;;4.80;99.90;;;;;;5094074;28;20181;-78
2021/01/09 12:15:20;;;;;;;19.27;12.65;;;4.80;99.90;;;;;;5093697;28;20276;-79
2021/01/09 12:17:46;;;;;;;17.40;10.60;;;4.70;99.90;;;;;;5093892;28;20197;-78
2021/01/09 12:20:13;;;;;;;17.90;12.63;;;4.70;99.90;;;;;;5088925;28;20236;-79
2021/01/09 12:22:39;;;;;;;17.83;12.07;;;4.70;99.90;;;;;;5093544;28;20267;-79
2021/01/09 12:25:06;;;;;;;19.70;11.48;;;4.60;99.90;;;;;;5093651;28;20220;-79
2021/01/09 12:27:33;;;;;;;16.05;10.35;;;4.70;99.90;;;;;;5093852;28;20271;-78
2021/01/09 12:29:59;;;;;;;17.00;11.40;;;4.70;99.90;;;;;;5093083;28;20278;-78
2021/01/09 12:32:25;;;;;;;20.08;12.68;;;4.80;99.90;;;;;;5093506;28;20283;-79
2021/01/09 12:34:54;;;;;;;17.67;11.65;;;4.80;99.90;;;;;;5093339;28;20672;-78
2021/01/09 12:37:21;;;;;;;16.35;11.57;;;4.90;99.90;;;;;;5093468;28;20189;-78
2021/01/09 12:39:46;;;;;;;16.48;11.70;;;4.90;99.90;;;;;;5093258;28;20275;-79
2021/01/09 12:42:15;;;;;;;17.17;11.50;;;5.00;99.90;;;;;;5093321;28;20216;-78
2021/01/09 12:44:43;;;;;;;18.27;11.45;;;5.00;99.90;;;;;;5093185;28;20510;-78
2021/01/09 12:47:09;;;;;;;15.63;10.95;;;5.00;99.90;;;;;;5093297;28;20181;-78
2021/01/09 12:49:35;;;;;;;15.57;10.70;;;5.00;99.90;;;;;;5097521;28;20188;-80
2021/01/09 12:52:01;;;;;;;15.30;10.73;;;5.00;99.90;;;;;;5093181;28;20663;-80